Time;durP1;ratioP1;P1;durP2;ratioP2;P2;SDS_P1;SDS_P2;PMS_P1;PMS_P2;Temp;Humidity;BMP_temperature;BMP_pressure;BME280_temperature;BME280_humidity;BME280_pressure;Samples;Min_cycle;Max_cycle;Signal;HPM_P1;HPM_P2
2022/02/16 00:01:14;;;;;;;0.88;0.40;;;27.00;61.50;;;;;;4143366;28;20032;-58
2022/02/16 00:03:37;;;;;;;8.20;1.00;;;27.00;61.40;;;;;;4119049;28;20044;-54
2022/02/16 00:05:59;;;;;;;1.58;0.60;;;27.10;62.10;;;;;;4134695;28;21191;-58
2022/02/16 00:08:24;;;;;;;1.73;0.60;;;27.10;61.40;;;;;;4145079;28;20068;-57
2022/02/16 00:10:46;;;;;;;2.15;0.65;;;27.10;61.40;;;;;;4115212;28;20070;-54
2022/02/16 00:13:09;;;;;;;3.75;0.85;;;27.20;61.40;;;;;;4129981;28;21888;-57
2022/02/16 00:15:31;;;;;;;1.65;0.50;;;27.20;61.30;;;;;;4141226;28;20068;-60
2022/02/16 00:17:53;;;;;;;4.00;0.68;;;27.20;61.30;;;;;;4118226;28;20424;-54
2022/02/16 00:20:16;;;;;;;14.73;1.05;;;27.30;61.40;;;;;;4134520;28;20514;-61
2022/02/16 00:22:38;;;;;;;6.65;1.00;;;27.30;61.00;;;;;;4144626;28;20570;-62
2022/02/16 00:25:01;;;;;;;1.65;0.90;;;27.30;60.50;;;;;;4134216;28;20046;-62
2022/02/16 00:27:24;;;;;;;5.47;0.98;;;27.30;60.40;;;;;;4133322;28;20424;-62
2022/02/16 00:29:46;;;;;;;2.85;1.15;;;27.30;60.40;;;;;;4144195;28;20047;-61
2022/02/16 00:32:13;;;;;;;1.92;0.60;;;27.30;60.30;;;;;;4136120;28;20036;-60
2022/02/16 00:34:36;;;;;;;3.20;0.77;;;27.30;60.20;;;;;;4133978;28;20499;-60
2022/02/16 00:36:58;;;;;;;4.65;0.70;;;27.30;60.20;;;;;;4143369;28;20406;-60
2022/02/16 00:39:21;;;;;;;2.83;0.85;;;27.40;60.20;;;;;;4133950;28;20051;-61
2022/02/16 00:41:43;;;;;;;3.00;0.80;;;27.40;60.10;;;;;;4133305;28;20086;-60
2022/02/16 00:44:06;;;;;;;2.75;0.70;;;27.40;60.10;;;;;;4144338;28;20191;-60
2022/02/16 00:46:28;;;;;;;1.25;0.50;;;27.40;60.00;;;;;;4134760;28;20064;-61
2022/02/16 00:48:51;;;;;;;1.50;0.50;;;27.40;60.00;;;;;;4134985;28;20060;-61
2022/02/16 00:51:13;;;;;;;1.02;0.60;;;27.40;59.90;;;;;;4141748;28;20862;-61
2022/02/16 00:53:36;;;;;;;1.85;0.88;;;27.40;59.90;;;;;;4137639;28;20078;-62
2022/02/16 00:55:58;;;;;;;1.58;0.50;;;27.40;59.80;;;;;;4131598;28;20122;-61
2022/02/16 00:58:21;;;;;;;2.15;0.60;;;27.50;59.80;;;;;;4138656;28;20037;-58
2022/02/16 01:00:43;;;;;;;1.20;0.50;;;27.50;59.80;;;;;;4140716;28;20700;-58
2022/02/16 01:03:06;;;;;;;1.20;0.50;;;27.50;59.70;;;;;;4132807;28;20029;-59
2022/02/16 01:05:29;;;;;;;0.50;0.30;;;27.50;59.70;;;;;;4135878;28;21538;-59
2022/02/16 01:07:51;;;;;;;1.30;0.30;;;27.50;59.60;;;;;;4128195;28;20123;-59
2022/02/16 01:10:14;;;;;;;0.55;0.35;;;27.50;59.60;;;;;;4134338;28;20163;-59
2022/02/16 01:12:36;;;;;;;0.65;0.50;;;27.50;59.50;;;;;;4136558;28;20413;-60
2022/02/16 01:14:59;;;;;;;1.47;0.47;;;27.50;59.40;;;;;;4145624;28;20106;-59
2022/02/16 01:17:22;;;;;;;1.33;0.60;;;27.50;59.40;;;;;;4135919;28;20067;-60
2022/02/16 01:19:44;;;;;;;0.43;0.30;;;27.50;59.40;;;;;;4136073;28;20040;-60
2022/02/16 01:22:07;;;;;;;1.55;0.40;;;27.50;59.40;;;;;;4148045;28;20377;-60
2022/02/16 01:24:29;;;;;;;0.57;0.35;;;27.60;59.40;;;;;;4138426;28;20130;-59
2022/02/16 01:26:52;;;;;;;0.90;0.50;;;27.60;59.40;;;;;;4137423;28;20080;-59
2022/02/16 01:29:15;;;;;;;0.85;0.38;;;27.60;59.20;;;;;;4146756;28;20056;-60
2022/02/16 01:31:37;;;;;;;0.82;0.32;;;27.60;59.20;;;;;;4132397;28;20453;-60
2022/02/16 01:34:00;;;;;;;0.30;0.30;;;27.60;59.20;;;;;;4129344;28;20047;-60
2022/02/16 01:36:22;;;;;;;0.85;0.40;;;27.60;59.20;;;;;;4122709;28;20156;-60
2022/02/16 01:38:45;;;;;;;0.90;0.30;;;27.70;59.10;;;;;;4135998;28;20048;-60
2022/02/16 01:41:07;;;;;;;0.20;0.20;;;27.70;59.10;;;;;;4134570;28;20782;-60
2022/02/16 01:43:30;;;;;;;0.57;0.40;;;27.70;59.10;;;;;;4143743;28;20044;-60
2022/02/16 01:45:53;;;;;;;0.93;0.50;;;27.70;59.10;;;;;;4144219;28;20162;-60
2022/02/16 01:48:16;;;;;;;0.35;0.30;;;27.70;59.00;;;;;;4123006;28;20056;-60
2022/02/16 01:50:38;;;;;;;0.20;0.20;;;27.70;59.00;;;;;;4141378;28;20044;-60
2022/02/16 01:53:01;;;;;;;1.33;0.52;;;27.70;59.00;;;;;;4147383;28;20102;-60
2022/02/16 01:55:24;;;;;;;1.23;0.50;;;27.70;59.00;;;;;;4136478;28;20127;-60
2022/02/16 01:57:49;;;;;;;0.73;0.30;;;27.70;58.90;;;;;;4137748;28;20044;-60
2022/02/16 02:00:12;;;;;;;0.73;0.35;;;27.70;58.90;;;;;;4143459;28;20794;-58
2022/02/16 02:02:36;;;;;;;2.55;0.55;;;27.70;59.20;;;;;;4122231;28;20051;-54
2022/02/16 02:04:58;;;;;;;3.88;0.70;;;27.70;59.80;;;;;;4145702;28;20378;-58
2022/02/16 02:07:21;;;;;;;2.30;0.90;;;27.60;56.70;;;;;;4149803;28;20090;-59
2022/02/16 02:09:43;;;;;;;1.48;0.75;;;27.30;55.00;;;;;;4140949;28;20044;-58
2022/02/16 02:12:06;;;;;;;1.50;0.80;;;27.00;54.00;;;;;;4141876;28;20183;-58
2022/02/16 02:14:29;;;;;;;2.63;0.95;;;26.70;53.40;;;;;;4147372;28;20695;-58
2022/02/16 02:16:51;;;;;;;1.85;0.90;;;26.40;53.50;;;;;;4110344;28;20045;-59
2022/02/16 02:19:15;;;;;;;3.50;0.90;;;26.10;53.50;;;;;;4138868;28;20270;-60
2022/02/16 02:21:37;;;;;;;2.50;0.90;;;25.90;53.20;;;;;;4147027;28;20044;-57
2022/02/16 02:24:00;;;;;;;2.67;0.82;;;25.70;53.70;;;;;;4138242;28;20032;-58
2022/02/16 02:26:23;;;;;;;1.33;0.70;;;25.50;52.90;;;;;;4139052;28;20127;-54
2022/02/16 02:28:46;;;;;;;2.83;1.15;;;25.30;53.90;;;;;;4147280;28;20044;-58
2022/02/16 02:31:09;;;;;;;2.20;0.82;;;25.20;54.20;;;;;;4136462;28;20090;-58
2022/02/16 02:33:32;;;;;;;2.50;1.15;;;25.10;54.20;;;;;;4134969;28;21542;-54
2022/02/16 02:35:55;;;;;;;2.63;0.80;;;24.90;53.80;;;;;;4145914;28;20040;-58
2022/02/16 02:38:18;;;;;;;1.75;0.70;;;24.80;53.70;;;;;;4136715;28;20059;-60
2022/02/16 02:40:40;;;;;;;1.75;0.90;;;24.60;53.90;;;;;;4135688;28;20040;-59
2022/02/16 02:43:03;;;;;;;1.38;0.80;;;24.50;54.00;;;;;;4144665;28;20085;-60
2022/02/16 02:45:25;;;;;;;2.30;1.23;;;24.40;54.40;;;;;;4122020;28;20057;-61
2022/02/16 02:47:48;;;;;;;1.02;0.63;;;24.30;54.50;;;;;;4134287;28;20036;-59
2022/02/16 02:50:10;;;;;;;0.90;0.77;;;24.20;54.40;;;;;;4146318;28;20033;-56
2022/02/16 02:52:36;;;;;;;2.05;0.80;;;24.10;54.40;;;;;;4136405;28;20293;-56
2022/02/16 02:54:59;;;;;;;3.90;1.35;;;24.00;54.50;;;;;;4134230;28;20044;-60
2022/02/16 02:57:22;;;;;;;1.63;0.80;;;23.90;54.90;;;;;;4145557;28;20105;-60
2022/02/16 02:59:44;;;;;;;3.78;1.30;;;23.80;55.70;;;;;;4134590;28;20052;-59
2022/02/16 03:02:06;;;;;;;1.83;0.70;;;23.80;55.30;;;;;;4133900;28;20085;-55
2022/02/16 03:04:29;;;;;;;2.05;1.08;;;23.80;55.80;;;;;;4144025;28;20071;-58
2022/02/16 03:06:51;;;;;;;1.60;0.77;;;23.90;56.20;;;;;;4133658;28;20088;-60
2022/02/16 03:09:14;;;;;;;2.35;1.17;;;24.00;56.70;;;;;;4137340;28;20044;-56
2022/02/16 03:11:36;;;;;;;1.65;0.80;;;24.20;57.20;;;;;;4136482;28;20040;-57
2022/02/16 03:13:59;;;;;;;4.70;0.80;;;24.40;57.40;;;;;;4134947;28;20094;-57
2022/02/16 03:16:21;;;;;;;1.23;0.60;;;24.60;58.20;;;;;;4138071;28;20041;-60
2022/02/16 03:18:44;;;;;;;2.47;0.80;;;24.60;56.80;;;;;;4134811;28;20151;-61
2022/02/16 03:21:06;;;;;;;1.45;0.90;;;24.60;56.10;;;;;;4135563;28;20131;-59
2022/02/16 03:23:29;;;;;;;2.50;0.95;;;24.50;55.70;;;;;;4144452;28;20472;-60
2022/02/16 03:25:52;;;;;;;1.85;0.88;;;24.40;55.40;;;;;;4132083;28;20409;-60
2022/02/16 03:28:15;;;;;;;2.47;1.17;;;24.30;55.20;;;;;;4139205;28;20159;-61
2022/02/16 03:30:38;;;;;;;2.50;0.80;;;24.30;55.20;;;;;;4133447;28;20040;-59
2022/02/16 03:33:05;;;;;;;2.47;0.97;;;24.20;55.20;;;;;;4123747;28;20052;-58
2022/02/16 03:35:28;;;;;;;2.08;1.10;;;24.10;55.40;;;;;;4133172;28;20105;-59
2022/02/16 03:37:51;;;;;;;1.38;0.85;;;24.00;55.30;;;;;;4126444;28;20063;-58
2022/02/16 03:40:13;;;;;;;2.73;1.03;;;24.00;55.70;;;;;;4136297;28;20531;-58
2022/02/16 03:42:36;;;;;;;2.28;1.05;;;24.00;55.90;;;;;;4123346;28;20079;-58
2022/02/16 03:44:58;;;;;;;3.58;1.60;;;24.00;56.30;;;;;;4133504;28;20048;-59
2022/02/16 03:47:21;;;;;;;3.67;2.13;;;23.90;56.30;;;;;;4141868;28;20040;-61
2022/02/16 03:49:44;;;;;;;2.47;1.35;;;23.90;56.30;;;;;;4131261;28;20254;-58
2022/02/16 03:52:06;;;;;;;4.40;1.58;;;23.90;56.90;;;;;;4134141;28;20036;-59
2022/02/16 03:54:29;;;;;;;2.35;1.50;;;23.80;56.30;;;;;;4125096;28;20131;-58
2022/02/16 03:56:51;;;;;;;3.22;1.30;;;23.80;56.40;;;;;;4122744;28;20029;-56
2022/02/16 03:59:14;;;;;;;2.38;1.33;;;23.80;56.30;;;;;;4130333;28;20036;-56
2022/02/16 04:01:37;;;;;;;2.90;1.38;;;23.70;56.30;;;;;;4124085;28;20033;-60
2022/02/16 04:04:00;;;;;;;3.88;2.03;;;23.70;56.30;;;;;;4131469;28;21408;-53
2022/02/16 04:06:22;;;;;;;6.00;1.75;;;23.70;56.30;;;;;;4130812;28;20139;-59
2022/02/16 04:08:45;;;;;;;2.40;1.35;;;23.70;56.50;;;;;;4134095;28;20035;-58
2022/02/16 04:11:08;;;;;;;2.97;1.20;;;23.60;56.40;;;;;;4139191;28;20925;-59
2022/02/16 04:13:30;;;;;;;2.88;1.30;;;23.60;56.30;;;;;;4133358;28;20051;-59
2022/02/16 04:15:53;;;;;;;3.05;1.20;;;23.60;56.20;;;;;;4131657;28;20041;-57
2022/02/16 04:18:15;;;;;;;2.05;1.35;;;23.60;56.20;;;;;;4143296;28;20495;-58
2022/02/16 04:20:38;;;;;;;2.80;0.95;;;23.60;56.30;;;;;;4129732;28;20032;-59
2022/02/16 04:23:00;;;;;;;2.45;0.95;;;23.60;56.30;;;;;;4135132;28;21806;-60
2022/02/16 04:25:23;;;;;;;1.83;1.05;;;23.60;56.30;;;;;;4134561;28;20511;-58
2022/02/16 04:27:46;;;;;;;2.33;1.20;;;23.60;56.30;;;;;;4130573;28;20033;-59
2022/02/16 04:30:10;;;;;;;1.67;0.80;;;23.50;56.20;;;;;;4138321;28;20656;-58
2022/02/16 04:32:33;;;;;;;1.52;0.80;;;23.50;56.10;;;;;;4127409;28;20636;-58
2022/02/16 04:34:55;;;;;;;1.70;1.13;;;23.50;55.90;;;;;;4129465;28;20626;-59
2022/02/16 04:37:18;;;;;;;3.10;1.08;;;23.50;55.90;;;;;;4135390;28;20048;-59
2022/02/16 04:39:41;;;;;;;1.52;0.90;;;23.50;55.80;;;;;;4129633;28;20044;-60
2022/02/16 04:42:03;;;;;;;2.95;1.02;;;23.50;55.60;;;;;;4140837;28;20040;-55
2022/02/16 04:44:26;;;;;;;2.40;1.00;;;23.50;55.70;;;;;;4130497;28;20064;-56
2022/02/16 04:46:48;;;;;;;4.43;1.15;;;23.50;55.70;;;;;;4130650;28;21150;-58
2022/02/16 04:49:11;;;;;;;2.42;1.17;;;23.50;55.80;;;;;;4144679;28;20093;-59
2022/02/16 04:51:33;;;;;;;3.15;0.82;;;23.50;55.80;;;;;;4133425;28;20466;-59
2022/02/16 04:53:56;;;;;;;1.77;0.90;;;23.50;55.50;;;;;;4138500;28;21738;-57
2022/02/16 04:56:19;;;;;;;2.13;0.93;;;23.50;55.40;;;;;;4136943;28;20051;-58
2022/02/16 04:58:41;;;;;;;1.08;0.70;;;23.50;55.40;;;;;;4136424;28;20123;-58
2022/02/16 05:01:04;;;;;;;2.53;1.02;;;23.50;55.30;;;;;;4140381;28;20036;-57
2022/02/16 05:03:26;;;;;;;1.60;0.70;;;23.50;55.40;;;;;;4128621;28;20074;-58
2022/02/16 05:05:49;;;;;;;2.03;1.13;;;23.50;55.20;;;;;;4129882;28;21105;-59
2022/02/16 05:08:11;;;;;;;2.88;0.98;;;23.50;55.30;;;;;;4139495;28;20701;-59
2022/02/16 05:10:34;;;;;;;4.00;0.88;;;23.50;55.30;;;;;;4132850;28;20186;-57
2022/02/16 05:12:56;;;;;;;0.70;0.52;;;23.50;55.20;;;;;;4139845;28;20476;-57
2022/02/16 05:15:19;;;;;;;1.65;0.73;;;23.50;55.30;;;;;;4133936;28;20163;-59
2022/02/16 05:17:41;;;;;;;1.98;0.85;;;23.50;55.20;;;;;;4135535;28;20032;-58
2022/02/16 05:20:05;;;;;;;1.33;0.70;;;23.50;55.10;;;;;;4145195;28;20036;-57
2022/02/16 05:22:27;;;;;;;1.13;0.60;;;23.50;55.00;;;;;;4135361;28;20751;-61
2022/02/16 05:24:50;;;;;;;2.47;0.90;;;23.50;55.00;;;;;;4135778;28;22328;-61
2022/02/16 05:27:14;;;;;;;13.20;1.10;;;23.50;55.00;;;;;;4138397;28;20040;-60
2022/02/16 05:29:36;;;;;;;2.30;0.60;;;23.60;55.10;;;;;;4137850;28;20037;-58
2022/02/16 05:31:59;;;;;;;3.08;1.15;;;23.50;55.00;;;;;;4140629;28;20649;-59
2022/02/16 05:34:21;;;;;;;1.92;0.90;;;23.50;55.20;;;;;;4126782;28;20029;-59
2022/02/16 05:36:44;;;;;;;1.67;0.85;;;23.60;55.20;;;;;;4129242;28;20045;-58
2022/02/16 05:39:07;;;;;;;1.27;0.87;;;23.60;55.00;;;;;;4133427;28;20076;-60
2022/02/16 05:41:31;;;;;;;2.15;1.05;;;23.60;54.90;;;;;;4131952;28;20056;-60
2022/02/16 05:43:54;;;;;;;1.15;0.70;;;23.60;54.80;;;;;;4141246;28;20040;-60
2022/02/16 05:46:17;;;;;;;1.73;0.80;;;23.70;55.00;;;;;;4136611;28;20056;-59
2022/02/16 05:48:39;;;;;;;1.02;0.73;;;23.70;55.50;;;;;;4136940;28;21884;-58
2022/02/16 05:51:03;;;;;;;1.88;0.80;;;23.70;54.80;;;;;;4135393;28;20028;-60
2022/02/16 05:53:26;;;;;;;1.98;0.88;;;23.70;54.70;;;;;;4136877;28;20519;-59
2022/02/16 05:55:48;;;;;;;2.67;1.30;;;23.70;55.00;;;;;;4129345;28;20044;-55
2022/02/16 05:58:11;;;;;;;1.30;0.88;;;23.80;54.80;;;;;;4137576;28;20134;-58
2022/02/16 06:00:33;;;;;;;1.50;0.82;;;23.80;54.70;;;;;;4133725;28;20768;-59
2022/02/16 06:02:56;;;;;;;2.30;0.93;;;23.80;54.60;;;;;;4142380;28;20033;-60
2022/02/16 06:05:18;;;;;;;2.95;1.00;;;23.80;54.50;;;;;;4136218;28;20060;-59
2022/02/16 06:07:41;;;;;;;1.35;0.93;;;23.80;54.40;;;;;;4141149;28;20045;-58
2022/02/16 06:10:04;;;;;;;1.13;0.68;;;23.80;54.60;;;;;;4137935;28;20858;-59
2022/02/16 06:12:27;;;;;;;0.68;0.68;;;23.80;54.30;;;;;;4139586;28;20036;-58
2022/02/16 06:14:50;;;;;;;4.07;1.10;;;23.90;54.40;;;;;;4145398;28;20070;-57
2022/02/16 06:17:13;;;;;;;3.53;0.90;;;23.90;54.60;;;;;;4136419;28;20175;-58
2022/02/16 06:19:35;;;;;;;1.15;0.82;;;24.00;55.30;;;;;;4139067;28;20055;-59
2022/02/16 06:21:58;;;;;;;1.45;0.80;;;24.30;55.50;;;;;;4138856;28;20039;-58
2022/02/16 06:24:21;;;;;;;3.67;1.00;;;24.60;55.60;;;;;;4135381;28;20036;-59
2022/02/16 06:26:44;;;;;;;1.83;1.00;;;24.90;55.50;;;;;;4144873;28;20040;-59
2022/02/16 06:29:06;;;;;;;2.65;0.90;;;25.30;55.30;;;;;;4136100;28;20037;-60
2022/02/16 06:31:29;;;;;;;1.45;0.57;;;25.60;55.10;;;;;;4137813;28;20045;-62
2022/02/16 06:33:51;;;;;;;2.15;0.85;;;25.80;55.30;;;;;;4139904;28;20117;-62
2022/02/16 06:36:14;;;;;;;3.75;0.80;;;26.10;55.40;;;;;;4118123;28;20060;-59
2022/02/16 06:38:36;;;;;;;2.40;0.98;;;26.30;55.40;;;;;;4144221;28;20040;-60
2022/02/16 06:40:59;;;;;;;2.42;0.47;;;26.50;55.60;;;;;;4138992;28;20139;-60
2022/02/16 06:43:22;;;;;;;1.08;0.55;;;26.60;55.60;;;;;;4132732;28;20054;-59
2022/02/16 06:45:45;;;;;;;2.70;0.98;;;26.80;55.70;;;;;;4138145;28;20178;-54
2022/02/16 06:48:08;;;;;;;2.10;0.73;;;27.00;55.60;;;;;;4140636;28;20706;-58
2022/02/16 06:50:31;;;;;;;1.47;0.67;;;27.10;55.60;;;;;;4130635;28;20492;-57
2022/02/16 06:52:53;;;;;;;1.77;0.80;;;27.30;56.30;;;;;;4130675;28;22235;-57
2022/02/16 06:55:16;;;;;;;3.15;0.85;;;27.50;55.60;;;;;;4131258;28;20067;-62
2022/02/16 06:57:39;;;;;;;2.00;0.80;;;27.60;55.50;;;;;;4125816;28;20596;-58
2022/02/16 07:00:01;;;;;;;3.00;0.80;;;27.70;55.20;;;;;;4127668;28;20044;-60
2022/02/16 07:02:25;;;;;;;7.22;1.13;;;27.90;55.00;;;;;;4139661;28;20036;-60
2022/02/16 07:04:47;;;;;;;2.58;1.05;;;28.00;54.90;;;;;;4131579;28;20831;-60
2022/02/16 07:07:10;;;;;;;2.40;0.82;;;28.10;54.70;;;;;;4129377;28;20040;-60
2022/02/16 07:09:33;;;;;;;5.13;1.40;;;28.10;54.40;;;;;;4132148;28;20041;-60
2022/02/16 07:11:55;;;;;;;2.37;0.87;;;28.20;54.30;;;;;;4127010;28;20452;-60
2022/02/16 07:14:19;;;;;;;1.05;0.52;;;28.30;54.30;;;;;;4124749;28;20561;-60
2022/02/16 07:16:41;;;;;;;;;;;28.40;54.00;;;;;;4134778;28;20110;-60
2022/02/16 07:19:03;;;;;;;2.75;0.80;;;28.50;54.00;;;;;;4123471;28;19924;-59
2022/02/16 07:21:26;;;;;;;2.47;1.02;;;28.50;53.70;;;;;;4121779;28;21302;-60
2022/02/16 07:23:49;;;;;;;3.33;1.00;;;28.60;53.70;;;;;;4134021;28;20033;-60
2022/02/16 07:26:12;;;;;;;3.42;1.17;;;28.60;53.60;;;;;;4128117;28;20575;-60
2022/02/16 07:28:34;;;;;;;2.90;0.90;;;28.70;53.60;;;;;;4129451;28;20054;-60
2022/02/16 07:30:57;;;;;;;3.53;1.00;;;28.70;53.50;;;;;;4135832;28;20066;-60
2022/02/16 07:33:19;;;;;;;2.25;1.00;;;28.80;53.60;;;;;;4131206;28;21193;-58
2022/02/16 07:35:42;;;;;;;2.13;0.98;;;28.80;53.50;;;;;;4128681;28;20118;-60
2022/02/16 07:38:05;;;;;;;1.73;0.90;;;28.80;53.50;;;;;;4128994;28;20043;-60
2022/02/16 07:40:27;;;;;;;4.65;1.30;;;28.80;53.50;;;;;;4125115;28;20055;-58
2022/02/16 07:42:50;;;;;;;5.82;1.45;;;28.90;53.50;;;;;;4109380;28;20040;-60
2022/02/16 07:45:13;;;;;;;3.63;1.30;;;28.90;53.50;;;;;;4134168;28;21190;-60
2022/02/16 07:47:35;;;;;;;3.28;1.33;;;28.90;53.50;;;;;;4131887;28;20987;-60
2022/02/16 07:49:58;;;;;;;4.95;1.38;;;28.90;53.50;;;;;;4127745;28;20043;-59
2022/02/16 07:52:21;;;;;;;3.77;1.37;;;28.90;53.50;;;;;;4134413;28;20042;-58
2022/02/16 07:54:44;;;;;;;3.63;1.30;;;29.00;53.50;;;;;;4131628;28;20288;-60
2022/02/16 07:57:07;;;;;;;3.00;1.00;;;29.00;53.50;;;;;;4124438;28;20105;-59
2022/02/16 07:59:29;;;;;;;3.60;1.38;;;29.00;53.50;;;;;;4128732;28;20045;-60
2022/02/16 08:01:52;;;;;;;3.83;1.20;;;29.00;53.60;;;;;;4133091;28;20511;-59
2022/02/16 08:04:18;;;;;;;3.65;1.33;;;29.00;53.70;;;;;;4128335;28;20052;-59
2022/02/16 08:06:40;;;;;;;2.60;1.10;;;28.90;53.70;;;;;;4137571;28;20137;-59
2022/02/16 08:09:03;;;;;;;3.42;1.60;;;29.00;53.90;;;;;;4132087;28;20040;-60
2022/02/16 08:11:25;;;;;;;4.72;1.30;;;29.00;53.80;;;;;;4127179;28;20085;-59
2022/02/16 08:13:53;;;;;;;2.75;1.30;;;29.00;53.80;;;;;;4119882;28;20040;-60
2022/02/16 08:16:15;;;;;;;3.65;1.17;;;29.00;53.80;;;;;;4125003;28;20040;-60
2022/02/16 08:18:38;;;;;;;2.85;0.90;;;29.00;53.80;;;;;;4126781;28;20036;-58
2022/02/16 08:21:00;;;;;;;4.18;1.27;;;29.00;53.80;;;;;;4138819;28;20052;-58
2022/02/16 08:23:24;;;;;;;3.50;1.27;;;29.00;53.80;;;;;;4130931;28;20037;-59
2022/02/16 08:25:47;;;;;;;2.80;1.05;;;29.00;53.90;;;;;;4130734;28;20044;-58
2022/02/16 08:28:10;;;;;;;3.03;0.82;;;29.00;53.90;;;;;;4140496;28;20048;-58
2022/02/16 08:30:33;;;;;;;2.72;1.00;;;29.00;53.90;;;;;;4129724;28;20044;-59
2022/02/16 08:32:55;;;;;;;3.58;1.30;;;29.00;54.00;;;;;;4134335;28;20483;-60
2022/02/16 08:35:18;;;;;;;3.63;1.03;;;29.00;53.90;;;;;;4143071;28;20440;-58
2022/02/16 08:37:41;;;;;;;2.92;0.80;;;29.00;53.90;;;;;;4134426;28;20289;-58
2022/02/16 08:40:05;;;;;;;3.70;1.15;;;29.00;54.00;;;;;;4133300;28;20032;-59
2022/02/16 08:42:27;;;;;;;;;;;28.90;54.00;;;;;;4142813;28;20283;-58
2022/02/16 08:44:49;;;;;;;3.70;1.02;;;28.90;54.70;;;;;;4135507;28;20054;-58
2022/02/16 08:47:12;;;;;;;4.15;1.40;;;28.90;54.10;;;;;;4132191;28;20044;-58
2022/02/16 08:49:34;;;;;;;2.85;1.00;;;28.90;54.20;;;;;;4140460;28;20041;-58
2022/02/16 08:51:57;;;;;;;2.83;1.10;;;28.90;54.30;;;;;;4126320;28;20044;-59
2022/02/16 08:54:19;;;;;;;3.42;1.17;;;28.90;54.40;;;;;;4135701;28;20036;-57
2022/02/16 08:56:45;;;;;;;3.72;1.23;;;28.90;54.40;;;;;;4123845;28;21182;-58
2022/02/16 08:59:07;;;;;;;3.55;1.35;;;28.90;54.40;;;;;;4139685;28;20064;-58
2022/02/16 09:01:33;;;;;;;3.08;1.10;;;28.90;54.60;;;;;;4135525;28;20974;-58
2022/02/16 09:03:55;;;;;;;2.08;0.90;;;28.80;54.50;;;;;;4144290;28;20071;-57
2022/02/16 09:06:18;;;;;;;3.67;1.13;;;28.80;54.70;;;;;;4139966;28;20075;-58
2022/02/16 09:08:40;;;;;;;4.13;1.00;;;28.80;54.80;;;;;;4136196;28;20043;-59
2022/02/16 09:11:03;;;;;;;4.03;1.25;;;28.80;54.90;;;;;;4142607;28;20932;-58
2022/02/16 09:13:25;;;;;;;1.58;0.93;;;28.80;54.90;;;;;;4140295;28;20037;-59
2022/02/16 09:15:48;;;;;;;4.28;1.17;;;28.80;55.00;;;;;;4130896;28;20103;-58
2022/02/16 09:18:11;;;;;;;2.13;0.90;;;28.80;55.00;;;;;;4142022;28;20051;-58
2022/02/16 09:20:34;;;;;;;2.70;1.05;;;28.80;55.10;;;;;;4143754;28;20951;-58
2022/02/16 09:22:56;;;;;;;3.17;0.73;;;28.80;55.10;;;;;;4137607;28;20368;-58
2022/02/16 09:25:19;;;;;;;2.70;0.93;;;28.80;55.20;;;;;;4137108;28;22520;-58
2022/02/16 09:27:42;;;;;;;2.23;0.83;;;28.80;55.30;;;;;;4145964;28;20078;-58
2022/02/16 09:30:06;;;;;;;1.42;0.85;;;28.70;55.20;;;;;;4134932;28;20273;-58
2022/02/16 09:32:29;;;;;;;3.90;1.00;;;28.80;55.30;;;;;;4136494;28;20091;-58
2022/02/16 09:34:52;;;;;;;2.97;1.13;;;28.70;55.30;;;;;;4142690;28;20036;-58
2022/02/16 09:37:14;;;;;;;4.15;1.30;;;28.70;55.30;;;;;;4137229;28;20077;-58
2022/02/16 09:39:37;;;;;;;2.35;0.90;;;28.70;55.40;;;;;;4137678;28;20051;-58
2022/02/16 09:42:00;;;;;;;2.63;0.90;;;28.70;55.40;;;;;;4145855;28;20074;-60
2022/02/16 09:44:37;;;;;;;3.25;1.10;;;28.70;55.50;;;;;;4133566;28;20281;-59
2022/02/16 09:47:05;;;;;;;2.03;0.82;;;28.70;55.50;;;;;;4140909;28;20481;-60
2022/02/16 09:49:27;;;;;;;2.58;1.02;;;28.70;55.50;;;;;;4136088;28;20044;-60
2022/02/16 09:51:50;;;;;;;3.90;1.35;;;28.70;55.50;;;;;;4143858;28;20048;-60
2022/02/16 09:54:13;;;;;;;3.70;1.25;;;28.70;55.60;;;;;;4136164;28;20428;-60
2022/02/16 09:56:38;;;;;;;2.67;1.00;;;28.70;55.60;;;;;;4136149;28;20061;-58
2022/02/16 09:59:03;;;;;;;2.78;1.08;;;28.60;55.60;;;;;;4135794;28;20443;-59
2022/02/16 10:01:26;;;;;;;2.17;0.85;;;28.60;55.70;;;;;;4139625;28;20036;-59
2022/02/16 10:04:03;;;;;;;4.03;1.33;;;28.60;55.80;;;;;;4139607;28;20118;-59
2022/02/16 10:06:41;;;;;;;2.42;0.85;;;28.60;55.90;;;;;;4139517;28;20500;-58
2022/02/16 10:09:05;;;;;;;3.17;1.20;;;28.60;56.00;;;;;;4144260;28;20067;-59
2022/02/16 10:11:28;;;;;;;2.97;0.90;;;28.60;56.10;;;;;;4140488;28;20083;-59
2022/02/16 10:13:53;;;;;;;2.28;1.10;;;28.60;56.00;;;;;;4146834;28;20131;-59
2022/02/16 10:16:30;;;;;;;3.58;1.30;;;28.60;56.10;;;;;;4138323;28;20048;-60
2022/02/16 10:19:00;;;;;;;3.28;1.17;;;28.60;56.20;;;;;;4144007;28;20028;-59
2022/02/16 10:21:22;;;;;;;2.85;1.23;;;28.60;56.20;;;;;;4137993;28;20462;-59
2022/02/16 10:23:48;;;;;;;3.08;1.27;;;28.60;56.20;;;;;;4143563;28;20862;-59
2022/02/16 10:26:11;;;;;;;3.60;1.08;;;28.60;56.40;;;;;;4137873;28;20686;-59
2022/02/16 10:28:42;;;;;;;4.38;1.10;;;28.60;56.40;;;;;;4138726;28;20180;-60
2022/02/16 10:31:09;;;;;;;3.53;1.10;;;28.50;56.40;;;;;;4143535;28;20488;-60
2022/02/16 10:33:32;;;;;;;3.78;1.33;;;28.50;56.50;;;;;;4142462;28;20060;-59
2022/02/16 10:36:06;;;;;;;3.30;1.00;;;28.50;56.90;;;;;;4152213;28;20091;-59
2022/02/16 10:38:30;;;;;;;2.42;1.00;;;28.50;56.60;;;;;;4143207;28;20151;-59
2022/02/16 10:41:06;;;;;;;3.38;1.15;;;28.50;56.60;;;;;;4150018;28;20047;-58
2022/02/16 10:43:42;;;;;;;4.78;1.35;;;28.50;56.70;;;;;;4143666;28;20037;-59
2022/02/16 10:46:21;;;;;;;3.40;1.10;;;28.50;56.80;;;;;;4139833;28;20056;-58
2022/02/16 10:48:43;;;;;;;2.13;0.93;;;28.50;57.20;;;;;;4139306;28;20040;-59
2022/02/16 10:51:15;;;;;;;4.83;1.27;;;28.50;56.90;;;;;;4136147;28;20075;-59
2022/02/16 10:53:37;;;;;;;4.15;1.33;;;28.50;56.90;;;;;;4145239;28;20281;-59
2022/02/16 10:56:00;;;;;;;3.05;0.90;;;28.50;57.10;;;;;;4137237;28;20574;-59
2022/02/16 10:58:26;;;;;;;3.03;0.95;;;28.50;57.00;;;;;;4138161;28;22340;-59
2022/02/16 11:00:52;;;;;;;3.90;1.50;;;28.50;57.10;;;;;;4139517;28;20048;-59
2022/02/16 11:03:42;;;;;;;2.22;1.00;;;28.50;57.10;;;;;;4136299;28;20044;-58
2022/02/16 11:06:07;;;;;;;2.90;1.05;;;28.50;57.20;;;;;;4140384;28;21217;-59
2022/02/16 11:08:36;;;;;;;2.40;1.10;;;28.50;57.20;;;;;;4144474;28;20066;-59
2022/02/16 11:11:03;;;;;;;2.95;1.10;;;28.40;57.20;;;;;;4131845;28;20072;-59
2022/02/16 11:13:26;;;;;;;2.97;0.80;;;28.40;57.20;;;;;;4135353;28;20071;-60
2022/02/16 11:15:49;;;;;;;3.33;1.00;;;28.40;57.30;;;;;;4130665;28;20167;-54
2022/02/16 11:18:16;;;;;;;3.67;1.17;;;28.40;57.40;;;;;;4134741;28;21466;-58
2022/02/16 11:20:39;;;;;;;2.22;0.93;;;28.40;58.00;;;;;;4121799;28;20041;-58
2022/02/16 11:23:02;;;;;;;5.20;1.10;;;28.40;58.50;;;;;;4124543;28;20151;-58
2022/02/16 11:25:31;;;;;;;2.88;1.00;;;28.40;58.70;;;;;;4132652;28;20052;-55
2022/02/16 11:27:54;;;;;;;3.85;1.15;;;28.40;58.90;;;;;;4126484;28;20033;-57
2022/02/16 11:30:36;;;;;;;4.87;1.43;;;28.40;59.20;;;;;;4127336;28;20036;-57
2022/02/16 11:33:19;;;;;;;3.50;0.93;;;28.40;59.20;;;;;;4132297;28;20674;-57
2022/02/16 11:35:58;;;;;;;4.72;1.00;;;28.40;59.00;;;;;;4131940;28;20040;-56
2022/02/16 11:38:38;;;;;;;4.30;1.30;;;28.40;58.90;;;;;;4134459;28;20062;-58
2022/02/16 11:41:01;;;;;;;4.57;1.10;;;28.40;59.30;;;;;;4135977;28;20486;-60
2022/02/16 11:44:01;;;;;;;3.30;1.00;;;28.40;59.60;;;;;;4133029;28;20060;-59
2022/02/16 11:46:43;;;;;;;4.18;0.98;;;28.40;59.80;;;;;;4144223;28;20056;-61
2022/02/16 11:49:07;;;;;;;5.20;1.10;;;28.40;60.00;;;;;;4142256;28;20041;-61
2022/02/16 11:51:34;;;;;;;2.45;0.70;;;28.40;60.00;;;;;;4132697;28;20419;-61
2022/02/16 11:53:56;;;;;;;4.32;1.02;;;28.40;59.50;;;;;;4129862;28;22334;-60
2022/02/16 11:56:24;;;;;;;5.20;0.77;;;28.40;60.00;;;;;;4126106;28;20124;-61
2022/02/16 11:59:14;;;;;;;4.43;0.93;;;28.50;60.30;;;;;;4129280;28;20028;-56
2022/02/16 12:02:05;;;;;;;3.05;0.60;;;28.50;60.40;;;;;;4118579;28;20098;-59
2022/02/16 12:04:32;;;;;;;2.30;0.80;;;28.50;60.60;;;;;;4140129;28;20048;-58
2022/02/16 12:07:27;;;;;;;2.75;0.80;;;28.50;60.50;;;;;;4131981;28;20110;-58
2022/02/16 12:10:14;;;;;;;3.40;0.90;;;28.50;60.40;;;;;;4131888;28;20055;-56
2022/02/16 12:12:36;;;;;;;3.63;1.23;;;28.50;60.30;;;;;;4130376;28;20032;-58
2022/02/16 12:14:59;;;;;;;3.88;0.85;;;28.50;60.40;;;;;;4137117;28;20121;-60
2022/02/16 12:17:23;;;;;;;2.25;0.68;;;28.50;60.40;;;;;;4133847;28;20115;-60
2022/02/16 12:19:46;;;;;;;3.90;0.85;;;28.50;60.40;;;;;;4129052;28;20036;-60
2022/02/16 12:22:08;;;;;;;3.37;0.90;;;28.50;60.30;;;;;;4138877;28;20045;-60
2022/02/16 12:24:31;;;;;;;2.40;0.52;;;28.50;60.30;;;;;;4130610;28;20040;-60
2022/02/16 12:26:56;;;;;;;3.83;0.73;;;28.60;60.30;;;;;;4131552;28;20079;-59
2022/02/16 12:29:29;;;;;;;4.50;0.60;;;28.50;60.20;;;;;;4142038;28;20388;-59
2022/02/16 12:31:57;;;;;;;7.28;1.00;;;28.60;60.90;;;;;;4132812;28;20451;-59